createdAt,value
2022-08-25T00:16:11.568Z,26.8
2022-08-25T00:36:16.047Z,26.8
2022-08-25T00:56:20.811Z,26.7
2022-08-25T01:06:22.446Z,26.6
2022-08-25T01:36:27.900Z,26.5
2022-08-25T01:46:30.543Z,26.4
2022-08-25T01:56:32.426Z,26.4
2022-08-25T02:06:34.403Z,26.3
2022-08-25T02:16:37.095Z,26.3
2022-08-25T02:36:40.985Z,26.2
2022-08-25T04:27:03.193Z,25.7
2022-08-25T04:37:05.013Z,25.7
2022-08-25T04:57:09.456Z,25.6
2022-08-25T05:07:11.857Z,25.6
2022-08-25T05:17:13.951Z,25.6
2022-08-25T05:27:16.247Z,25.6
2022-08-25T05:37:18.588Z,25.7
2022-08-25T05:47:20.974Z,25.8
2022-08-25T05:57:23.085Z,25.7
2022-08-25T06:17:27.350Z,25.5
2022-08-25T06:27:29.559Z,25.2
2022-08-25T06:37:31.517Z,25.1
2022-08-25T06:47:33.325Z,25.3
2022-08-25T07:07:43.149Z,25.7
2022-08-25T07:17:39.877Z,25.9
2022-08-25T07:27:42.289Z,26.1
2022-08-25T07:37:49.080Z,26.2
2022-08-25T07:47:46.953Z,26.4
2022-08-25T08:07:51.193Z,26.6
2022-08-25T08:17:53.611Z,27.2
2022-08-25T08:27:55.685Z,27.8
2022-08-25T08:37:57.773Z,28.1
2022-08-25T08:48:00.060Z,28.3
2022-08-25T08:58:01.962Z,28.4
2022-08-25T09:08:04.426Z,28.3
2022-08-25T09:18:06.854Z,28.1
2022-08-25T09:28:08.878Z,28
2022-08-25T09:38:11.180Z,27.9
2022-08-25T09:58:15.409Z,28.4
2022-08-25T10:18:19.786Z,29
2022-08-25T10:28:21.664Z,29.1
2022-08-25T10:38:24.308Z,29.2
2022-08-25T10:48:26.046Z,29.1
2022-08-25T10:58:30.682Z,28.8
2022-08-25T11:08:30.490Z,28.7
2022-08-25T11:18:32.258Z,28.5
2022-08-25T11:28:34.676Z,28.4
2022-08-25T11:38:37.294Z,28.3
2022-08-25T11:48:39.455Z,28.2
2022-08-25T11:58:41.623Z,28.2
2022-08-25T12:08:43.917Z,28.2
2022-08-25T12:18:46.432Z,28.1
2022-08-25T12:28:48.426Z,28.1
2022-08-25T12:38:51.972Z,28.1
2022-08-25T12:59:00.534Z,28
2022-08-25T13:18:59.661Z,28
2022-08-25T13:29:02.940Z,28
2022-08-25T13:39:03.878Z,28
2022-08-25T13:59:09.949Z,28
2022-08-25T14:19:13.916Z,28
2022-08-25T14:49:24.725Z,28.1
2022-08-25T14:59:21.826Z,28.1
2022-08-25T15:09:24.352Z,28.1
2022-08-25T16:39:45.314Z,28.2
2022-08-25T16:49:47.386Z,28.2
2022-08-25T17:09:51.736Z,28.2
2022-08-25T17:19:54.768Z,28.2
2022-08-25T17:29:56.464Z,28.2
2022-08-25T17:40:02.904Z,28.2
2022-08-25T18:10:05.576Z,28.2
2022-08-25T19:20:19.899Z,28.2
2022-08-25T19:30:21.817Z,28.2
2022-08-25T19:40:24.234Z,28.2
2022-08-25T19:50:26.491Z,28.1
2022-08-25T20:10:31.279Z,28.1
2022-08-25T20:20:40.812Z,28.1
2022-08-25T20:30:42.673Z,28.1
2022-08-25T20:40:44.879Z,28
2022-08-25T20:50:54.488Z,28
2022-08-25T21:00:49.790Z,28
2022-08-25T21:10:52.309Z,27.9
2022-08-25T21:20:54.908Z,27.9
2022-08-25T21:30:57.376Z,27.9
2022-08-25T21:40:59.247Z,27.8
2022-08-25T21:51:01.054Z,27.8
2022-08-25T22:01:02.826Z,27.8
2022-08-25T22:11:05.197Z,27.7
2022-08-25T22:21:08.603Z,27.7
2022-08-25T23:11:18.874Z,27.5
2022-08-25T23:21:24.274Z,27.4
2022-08-25T23:31:23.589Z,27.4
2022-08-25T23:41:26.015Z,27.3
2022-08-25T23:51:28.142Z,27.3
